sensor_id;sensor_type;location;lat;lon;timestamp;temperature;humidity
49042;DHT22;34859;51.608;11.462;2022-07-05T00:02:25;14.00;99.90
49042;DHT22;34859;51.608;11.462;2022-07-05T00:04:51;14.00;99.90
49042;DHT22;34859;51.608;11.462;2022-07-05T00:07:17;13.90;99.90
49042;DHT22;34859;51.608;11.462;2022-07-05T00:09:47;13.80;99.90
49042;DHT22;34859;51.608;11.462;2022-07-05T00:12:13;13.80;99.90
49042;DHT22;34859;51.608;11.462;2022-07-05T00:14:40;13.80;99.90
49042;DHT22;34859;51.608;11.462;2022-07-05T00:17:07;13.70;99.90
49042;DHT22;34859;51.608;11.462;2022-07-05T00:19:33;13.80;99.90
49042;DHT22;34859;51.608;11.462;2022-07-05T00:21:59;13.70;99.90
49042;DHT22;34859;51.608;11.462;2022-07-05T00:24:25;13.70;99.90
49042;DHT22;34859;51.608;11.462;2022-07-05T00:26:51;13.70;99.90
49042;DHT22;34859;51.608;11.462;2022-07-05T00:29:17;13.70;99.90
49042;DHT22;34859;51.608;11.462;2022-07-05T00:31:43;13.70;99.90
49042;DHT22;34859;51.608;11.462;2022-07-05T00:34:08;13.70;99.90
49042;DHT22;34859;51.608;11.462;2022-07-05T00:36:34;13.70;99.90
49042;DHT22;34859;51.608;11.462;2022-07-05T00:39:00;13.60;99.90
49042;DHT22;34859;51.608;11.462;2022-07-05T00:41:27;13.60;99.90
49042;DHT22;34859;51.608;11.462;2022-07-05T00:44:03;13.50;99.90
49042;DHT22;34859;51.608;11.462;2022-07-05T00:46:29;13.50;99.90
49042;DHT22;34859;51.608;11.462;2022-07-05T00:48:56;13.40;99.90
49042;DHT22;34859;51.608;11.462;2022-07-05T00:51:22;13.40;99.90
49042;DHT22;34859;51.608;11.462;2022-07-05T00:53:49;13.40;99.90
49042;DHT22;34859;51.608;11.462;2022-07-05T00:56:15;13.40;99.90
49042;DHT22;34859;51.608;11.462;2022-07-05T00:58:41;13.30;99.90
49042;DHT22;34859;51.608;11.462;2022-07-05T01:01:08;13.40;99.90
49042;DHT22;34859;51.608;11.462;2022-07-05T01:03:35;13.30;99.90
49042;DHT22;34859;51.608;11.462;2022-07-05T01:06:02;13.30;99.90
49042;DHT22;34859;51.608;11.462;2022-07-05T01:08:30;13.30;99.90
49042;DHT22;34859;51.608;11.462;2022-07-05T01:10:58;13.30;99.90
49042;DHT22;34859;51.608;11.462;2022-07-05T01:13:24;13.30;99.90
49042;DHT22;34859;51.608;11.462;2022-07-05T01:15:51;13.30;99.90
49042;DHT22;34859;51.608;11.462;2022-07-05T01:18:20;13.20;99.90
49042;DHT22;34859;51.608;11.462;2022-07-05T01:20:49;13.20;99.90
49042;DHT22;34859;51.608;11.462;2022-07-05T01:23:18;13.20;99.90
49042;DHT22;34859;51.608;11.462;2022-07-05T01:25:46;13.30;99.90
49042;DHT22;34859;51.608;11.462;2022-07-05T01:28:13;13.20;99.90
49042;DHT22;34859;51.608;11.462;2022-07-05T01:30:39;13.20;99.90
49042;DHT22;34859;51.608;11.462;2022-07-05T01:33:09;13.20;99.90
49042;DHT22;34859;51.608;11.462;2022-07-05T01:35:36;13.10;99.90
49042;DHT22;34859;51.608;11.462;2022-07-05T01:38:03;13.10;99.90
49042;DHT22;34859;51.608;11.462;2022-07-05T01:40:31;13.10;99.90
49042;DHT22;34859;51.608;11.462;2022-07-05T01:42:57;13.10;99.90
49042;DHT22;34859;51.608;11.462;2022-07-05T01:45:23;13.10;99.90
49042;DHT22;34859;51.608;11.462;2022-07-05T01:48:10;13.10;99.90
49042;DHT22;34859;51.608;11.462;2022-07-05T01:50:50;13.10;99.90
49042;DHT22;34859;51.608;11.462;2022-07-05T01:53:21;12.90;99.90
49042;DHT22;34859;51.608;11.462;2022-07-05T01:55:47;13.00;99.90
49042;DHT22;34859;51.608;11.462;2022-07-05T01:58:14;12.90;99.90
49042;DHT22;34859;51.608;11.462;2022-07-05T02:00:48;12.80;99.90
49042;DHT22;34859;51.608;11.462;2022-07-05T02:03:15;12.60;99.90
49042;DHT22;34859;51.608;11.462;2022-07-05T02:05:41;12.50;99.90
49042;DHT22;34859;51.608;11.462;2022-07-05T02:08:11;12.40;99.90
49042;DHT22;34859;51.608;11.462;2022-07-05T02:10:38;12.30;99.90
49042;DHT22;34859;51.608;11.462;2022-07-05T02:13:04;12.20;99.90
49042;DHT22;34859;51.608;11.462;2022-07-05T02:15:34;12.20;99.90
49042;DHT22;34859;51.608;11.462;2022-07-05T02:18:02;12.10;99.90
49042;DHT22;34859;51.608;11.462;2022-07-05T02:20:28;12.10;99.90
49042;DHT22;34859;51.608;11.462;2022-07-05T02:22:54;12.00;99.90
49042;DHT22;34859;51.608;11.462;2022-07-05T02:25:21;12.10;99.90
49042;DHT22;34859;51.608;11.462;2022-07-05T02:27:47;12.20;99.90
49042;DHT22;34859;51.608;11.462;2022-07-05T02:30:14;12.10;99.90
49042;DHT22;34859;51.608;11.462;2022-07-05T02:32:39;12.00;99.90
49042;DHT22;34859;51.608;11.462;2022-07-05T02:35:08;12.00;99.90
49042;DHT22;34859;51.608;11.462;2022-07-05T02:37:35;11.90;99.90
49042;DHT22;34859;51.608;11.462;2022-07-05T02:40:00;11.90;99.90
49042;DHT22;34859;51.608;11.462;2022-07-05T02:42:29;11.90;99.90
49042;DHT22;34859;51.608;11.462;2022-07-05T02:44:54;11.90;99.90
49042;DHT22;34859;51.608;11.462;2022-07-05T02:47:20;11.90;99.90
49042;DHT22;34859;51.608;11.462;2022-07-05T02:49:47;11.90;99.90
49042;DHT22;34859;51.608;11.462;2022-07-05T02:52:12;11.90;99.90
49042;DHT22;34859;51.608;11.462;2022-07-05T02:54:38;11.90;99.90
49042;DHT22;34859;51.608;11.462;2022-07-05T02:57:05;11.90;99.90
49042;DHT22;34859;51.608;11.462;2022-07-05T02:59:31;12.00;99.90
49042;DHT22;34859;51.608;11.462;2022-07-05T03:01:57;12.00;99.90
49042;DHT22;34859;51.608;11.462;2022-07-05T03:04:23;12.10;99.90
49042;DHT22;34859;51.608;11.462;2022-07-05T03:06:49;12.10;99.90
49042;DHT22;34859;51.608;11.462;2022-07-05T03:09:14;12.40;99.90
49042;DHT22;34859;51.608;11.462;2022-07-05T03:11:40;12.50;99.90
49042;DHT22;34859;51.608;11.462;2022-07-05T03:14:06;12.60;99.90
49042;DHT22;34859;51.608;11.462;2022-07-05T03:16:32;12.70;99.90
49042;DHT22;34859;51.608;11.462;2022-07-05T03:18:59;12.70;99.90
49042;DHT22;34859;51.608;11.462;2022-07-05T03:21:24;12.70;99.90
49042;DHT22;34859;51.608;11.462;2022-07-05T03:23:50;12.70;99.90
49042;DHT22;34859;51.608;11.462;2022-07-05T03:26:17;12.70;99.90
49042;DHT22;34859;51.608;11.462;2022-07-05T03:28:43;12.60;99.90
49042;DHT22;34859;51.608;11.462;2022-07-05T03:31:28;12.60;99.90
49042;DHT22;34859;51.608;11.462;2022-07-05T03:33:54;12.60;99.90
49042;DHT22;34859;51.608;11.462;2022-07-05T03:36:22;12.60;99.90
49042;DHT22;34859;51.608;11.462;2022-07-05T03:38:48;12.60;99.90
49042;DHT22;34859;51.608;11.462;2022-07-05T03:41:13;12.60;99.90
49042;DHT22;34859;51.608;11.462;2022-07-05T03:43:39;12.60;99.90
49042;DHT22;34859;51.608;11.462;2022-07-05T03:46:05;12.60;99.90
49042;DHT22;34859;51.608;11.462;2022-07-05T03:48:30;12.60;99.90
49042;DHT22;34859;51.608;11.462;2022-07-05T03:50:56;12.60;99.90
49042;DHT22;34859;51.608;11.462;2022-07-05T03:53:22;12.60;99.90
49042;DHT22;34859;51.608;11.462;2022-07-05T03:55:48;12.70;99.90
49042;DHT22;34859;51.608;11.462;2022-07-05T03:58:13;12.70;99.90
49042;DHT22;34859;51.608;11.462;2022-07-05T04:00:39;12.60;99.90
49042;DHT22;34859;51.608;11.462;2022-07-05T04:03:05;12.50;99.90
49042;DHT22;34859;51.608;11.462;2022-07-05T04:05:31;12.50;99.90
49042;DHT22;34859;51.608;11.462;2022-07-05T04:07:57;12.50;99.90
49042;DHT22;34859;51.608;11.462;2022-07-05T04:10:23;12.50;99.90
49042;DHT22;34859;51.608;11.462;2022-07-05T04:13:08;12.50;99.90
49042;DHT22;34859;51.608;11.462;2022-07-05T04:15:54;12.50;99.90
49042;DHT22;34859;51.608;11.462;2022-07-05T04:18:40;12.60;99.90
49042;DHT22;34859;51.608;11.462;2022-07-05T04:21:26;12.80;99.90
49042;DHT22;34859;51.608;11.462;2022-07-05T04:23:52;13.00;99.90
49042;DHT22;34859;51.608;11.462;2022-07-05T04:26:20;13.10;99.90
49042;DHT22;34859;51.608;11.462;2022-07-05T04:28:46;13.20;99.90
49042;DHT22;34859;51.608;11.462;2022-07-05T04:31:12;13.30;99.90
49042;DHT22;34859;51.608;11.462;2022-07-05T04:33:38;13.40;99.90
49042;DHT22;34859;51.608;11.462;2022-07-05T04:36:04;13.40;99.90
49042;DHT22;34859;51.608;11.462;2022-07-05T04:38:30;13.50;99.90
49042;DHT22;34859;51.608;11.462;2022-07-05T04:40:58;13.50;99.90
49042;DHT22;34859;51.608;11.462;2022-07-05T04:43:24;13.60;99.90
49042;DHT22;34859;51.608;11.462;2022-07-05T04:45:49;13.60;99.90
49042;DHT22;34859;51.608;11.462;2022-07-05T04:48:16;13.70;99.90
49042;DHT22;34859;51.608;11.462;2022-07-05T04:50:41;13.80;99.90
49042;DHT22;34859;51.608;11.462;2022-07-05T04:53:07;13.80;99.90
49042;DHT22;34859;51.608;11.462;2022-07-05T04:55:33;13.90;99.90
49042;DHT22;34859;51.608;11.462;2022-07-05T04:57:59;13.90;99.90
49042;DHT22;34859;51.608;11.462;2022-07-05T05:00:24;14.00;99.90
49042;DHT22;34859;51.608;11.462;2022-07-05T05:02:50;14.10;99.90
49042;DHT22;34859;51.608;11.462;2022-07-05T05:05:18;14.10;99.90
49042;DHT22;34859;51.608;11.462;2022-07-05T05:07:44;14.20;99.90
49042;DHT22;34859;51.608;11.462;2022-07-05T05:10:10;14.30;99.90
49042;DHT22;34859;51.608;11.462;2022-07-05T05:12:37;14.40;99.90
49042;DHT22;34859;51.608;11.462;2022-07-05T05:15:04;14.40;99.90
49042;DHT22;34859;51.608;11.462;2022-07-05T05:17:38;14.50;99.90
49042;DHT22;34859;51.608;11.462;2022-07-05T05:20:17;14.50;99.90
49042;DHT22;34859;51.608;11.462;2022-07-05T05:22:43;14.60;99.90
49042;DHT22;34859;51.608;11.462;2022-07-05T05:25:10;14.70;99.90
49042;DHT22;34859;51.608;11.462;2022-07-05T05:27:56;14.80;99.90
49042;DHT22;34859;51.608;11.462;2022-07-05T05:30:22;14.80;99.90
49042;DHT22;34859;51.608;11.462;2022-07-05T05:32:48;14.90;99.90
49042;DHT22;34859;51.608;11.462;2022-07-05T05:35:14;14.90;99.90
49042;DHT22;34859;51.608;11.462;2022-07-05T05:37:50;15.00;99.90
49042;DHT22;34859;51.608;11.462;2022-07-05T05:40:17;15.10;99.90
49042;DHT22;34859;51.608;11.462;2022-07-05T05:42:43;15.20;99.90
49042;DHT22;34859;51.608;11.462;2022-07-05T05:45:09;15.30;99.90
49042;DHT22;34859;51.608;11.462;2022-07-05T05:47:51;15.50;99.90
49042;DHT22;34859;51.608;11.462;2022-07-05T05:50:31;15.60;99.90
49042;DHT22;34859;51.608;11.462;2022-07-05T05:52:57;15.80;99.90
49042;DHT22;34859;51.608;11.462;2022-07-05T05:55:24;15.90;99.90
49042;DHT22;34859;51.608;11.462;2022-07-05T05:57:50;16.10;99.90
49042;DHT22;34859;51.608;11.462;2022-07-05T06:00:19;16.20;99.90
49042;DHT22;34859;51.608;11.462;2022-07-05T06:02:47;16.40;99.90
49042;DHT22;34859;51.608;11.462;2022-07-05T06:05:13;16.60;99.90
49042;DHT22;34859;51.608;11.462;2022-07-05T06:07:53;16.70;99.90
49042;DHT22;34859;51.608;11.462;2022-07-05T06:10:22;16.90;99.90
49042;DHT22;34859;51.608;11.462;2022-07-05T06:12:51;17.00;99.90
49042;DHT22;34859;51.608;11.462;2022-07-05T06:15:18;17.10;99.90
49042;DHT22;34859;51.608;11.462;2022-07-05T06:17:44;17.20;99.90
49042;DHT22;34859;51.608;11.462;2022-07-05T06:20:12;17.30;99.90
49042;DHT22;34859;51.608;11.462;2022-07-05T06:22:39;17.40;99.90
49042;DHT22;34859;51.608;11.462;2022-07-05T06:25:05;17.50;99.90
49042;DHT22;34859;51.608;11.462;2022-07-05T06:27:31;17.50;99.90
49042;DHT22;34859;51.608;11.462;2022-07-05T06:29:59;17.60;99.90
49042;DHT22;34859;51.608;11.462;2022-07-05T06:32:24;17.70;99.90
49042;DHT22;34859;51.608;11.462;2022-07-05T06:34:50;17.80;99.90
49042;DHT22;34859;51.608;11.462;2022-07-05T06:37:17;17.90;99.90
49042;DHT22;34859;51.608;11.462;2022-07-05T06:39:42;17.90;99.90
49042;DHT22;34859;51.608;11.462;2022-07-05T06:42:09;18.00;99.90
49042;DHT22;34859;51.608;11.462;2022-07-05T06:44:35;18.10;99.90
49042;DHT22;34859;51.608;11.462;2022-07-05T06:47:00;18.20;99.90
49042;DHT22;34859;51.608;11.462;2022-07-05T06:49:27;18.20;99.90
49042;DHT22;34859;51.608;11.462;2022-07-05T06:51:53;18.20;99.90
49042;DHT22;34859;51.608;11.462;2022-07-05T06:54:19;18.20;99.90
49042;DHT22;34859;51.608;11.462;2022-07-05T06:56:44;18.20;99.90
49042;DHT22;34859;51.608;11.462;2022-07-05T06:59:10;18.20;99.90
49042;DHT22;34859;51.608;11.462;2022-07-05T07:01:36;18.20;99.90
49042;DHT22;34859;51.608;11.462;2022-07-05T07:04:02;18.30;99.90
49042;DHT22;34859;51.608;11.462;2022-07-05T07:06:28;18.30;99.90
49042;DHT22;34859;51.608;11.462;2022-07-05T07:08:54;18.40;99.90
49042;DHT22;34859;51.608;11.462;2022-07-05T07:11:58;18.40;99.90
49042;DHT22;34859;51.608;11.462;2022-07-05T07:14:44;18.40;99.90
49042;DHT22;34859;51.608;11.462;2022-07-05T07:17:09;18.50;99.90
49042;DHT22;34859;51.608;11.462;2022-07-05T07:19:35;18.60;99.90
49042;DHT22;34859;51.608;11.462;2022-07-05T07:22:01;18.60;99.90
49042;DHT22;34859;51.608;11.462;2022-07-05T07:24:27;18.60;99.90
49042;DHT22;34859;51.608;11.462;2022-07-05T07:26:53;18.70;99.90
49042;DHT22;34859;51.608;11.462;2022-07-05T07:29:36;18.80;99.90
49042;DHT22;34859;51.608;11.462;2022-07-05T07:32:04;18.90;99.90
49042;DHT22;34859;51.608;11.462;2022-07-05T07:34:30;19.00;99.90
49042;DHT22;34859;51.608;11.462;2022-07-05T07:36:57;19.00;99.90
49042;DHT22;34859;51.608;11.462;2022-07-05T07:39:24;19.10;99.90
49042;DHT22;34859;51.608;11.462;2022-07-05T07:41:50;19.10;99.90
49042;DHT22;34859;51.608;11.462;2022-07-05T07:44:16;19.20;99.90
49042;DHT22;34859;51.608;11.462;2022-07-05T07:46:42;19.20;99.90
49042;DHT22;34859;51.608;11.462;2022-07-05T07:49:09;19.20;99.90
49042;DHT22;34859;51.608;11.462;2022-07-05T07:51:36;19.20;99.90
49042;DHT22;34859;51.608;11.462;2022-07-05T07:54:02;19.20;99.90
49042;DHT22;34859;51.608;11.462;2022-07-05T07:56:28;19.40;99.90
49042;DHT22;34859;51.608;11.462;2022-07-05T07:58:54;19.60;99.90
49042;DHT22;34859;51.608;11.462;2022-07-05T08:01:20;19.80;99.90
49042;DHT22;34859;51.608;11.462;2022-07-05T08:03:47;19.90;99.90
49042;DHT22;34859;51.608;11.462;2022-07-05T08:06:13;20.00;99.90
49042;DHT22;34859;51.608;11.462;2022-07-05T08:08:41;20.10;99.90
49042;DHT22;34859;51.608;11.462;2022-07-05T08:11:09;20.30;99.90
49042;DHT22;34859;51.608;11.462;2022-07-05T08:13:35;20.30;99.90
49042;DHT22;34859;51.608;11.462;2022-07-05T08:16:01;20.30;99.90
49042;DHT22;34859;51.608;11.462;2022-07-05T08:18:28;20.20;99.90
49042;DHT22;34859;51.608;11.462;2022-07-05T08:21:12;20.20;99.90
49042;DHT22;34859;51.608;11.462;2022-07-05T08:23:58;20.20;99.90
49042;DHT22;34859;51.608;11.462;2022-07-05T08:26:25;20.30;99.90
49042;DHT22;34859;51.608;11.462;2022-07-05T08:28:51;20.30;99.90
49042;DHT22;34859;51.608;11.462;2022-07-05T08:31:17;20.40;99.90
49042;DHT22;34859;51.608;11.462;2022-07-05T08:33:43;20.40;99.90
49042;DHT22;34859;51.608;11.462;2022-07-05T08:36:08;20.40;99.90
49042;DHT22;34859;51.608;11.462;2022-07-05T08:38:34;20.40;99.90
49042;DHT22;34859;51.608;11.462;2022-07-05T08:41:00;20.50;99.90
49042;DHT22;34859;51.608;11.462;2022-07-05T08:43:28;20.70;99.90
49042;DHT22;34859;51.608;11.462;2022-07-05T08:45:55;20.60;99.90
49042;DHT22;34859;51.608;11.462;2022-07-05T08:48:23;20.40;99.90
49042;DHT22;34859;51.608;11.462;2022-07-05T08:50:51;20.40;99.90
49042;DHT22;34859;51.608;11.462;2022-07-05T08:53:21;20.30;99.90
49042;DHT22;34859;51.608;11.462;2022-07-05T08:55:47;20.40;99.90
49042;DHT22;34859;51.608;11.462;2022-07-05T08:58:13;20.60;99.90
49042;DHT22;34859;51.608;11.462;2022-07-05T09:00:43;20.80;99.90
49042;DHT22;34859;51.608;11.462;2022-07-05T09:03:09;21.00;99.90
49042;DHT22;34859;51.608;11.462;2022-07-05T09:05:42;21.30;99.90
49042;DHT22;34859;51.608;11.462;2022-07-05T09:08:10;21.50;99.90
49042;DHT22;34859;51.608;11.462;2022-07-05T09:10:40;21.70;99.90
49042;DHT22;34859;51.608;11.462;2022-07-05T09:13:07;22.00;99.90
49042;DHT22;34859;51.608;11.462;2022-07-05T09:15:33;22.20;99.90
49042;DHT22;34859;51.608;11.462;2022-07-05T09:17:59;22.20;99.90
49042;DHT22;34859;51.608;11.462;2022-07-05T09:20:26;22.00;99.90
49042;DHT22;34859;51.608;11.462;2022-07-05T09:22:56;21.70;99.90
49042;DHT22;34859;51.608;11.462;2022-07-05T09:25:24;21.60;99.90
49042;DHT22;34859;51.608;11.462;2022-07-05T09:27:51;21.60;99.90
49042;DHT22;34859;51.608;11.462;2022-07-05T09:33:00;21.40;99.90
49042;DHT22;34859;51.608;11.462;2022-07-05T09:35:28;21.20;99.90
49042;DHT22;34859;51.608;11.462;2022-07-05T09:37:54;21.10;99.90
49042;DHT22;34859;51.608;11.462;2022-07-05T09:40:20;21.00;99.90
49042;DHT22;34859;51.608;11.462;2022-07-05T09:42:47;21.00;99.90
49042;DHT22;34859;51.608;11.462;2022-07-05T09:45:22;21.00;99.90
49042;DHT22;34859;51.608;11.462;2022-07-05T09:47:49;21.00;99.90
49042;DHT22;34859;51.608;11.462;2022-07-05T09:50:15;21.00;99.90
49042;DHT22;34859;51.608;11.462;2022-07-05T09:52:57;21.20;99.90
49042;DHT22;34859;51.608;11.462;2022-07-05T09:55:23;21.60;99.90
49042;DHT22;34859;51.608;11.462;2022-07-05T09:57:49;21.90;99.90
49042;DHT22;34859;51.608;11.462;2022-07-05T10:00:22;21.90;99.90
49042;DHT22;34859;51.608;11.462;2022-07-05T10:02:54;21.50;99.90
49042;DHT22;34859;51.608;11.462;2022-07-05T10:05:26;21.30;99.90
49042;DHT22;34859;51.608;11.462;2022-07-05T10:08:10;21.20;99.90
49042;DHT22;34859;51.608;11.462;2022-07-05T10:10:41;21.10;99.90
49042;DHT22;34859;51.608;11.462;2022-07-05T10:13:08;21.00;99.90
49042;DHT22;34859;51.608;11.462;2022-07-05T10:15:35;20.90;99.90
49042;DHT22;34859;51.608;11.462;2022-07-05T10:18:09;20.80;99.90
49042;DHT22;34859;51.608;11.462;2022-07-05T10:23:04;20.80;99.90
49042;DHT22;34859;51.608;11.462;2022-07-05T10:25:30;20.80;99.90
49042;DHT22;34859;51.608;11.462;2022-07-05T10:27:58;20.70;99.90
49042;DHT22;34859;51.608;11.462;2022-07-05T10:30:24;20.70;99.90
49042;DHT22;34859;51.608;11.462;2022-07-05T10:32:51;20.70;99.90
49042;DHT22;34859;51.608;11.462;2022-07-05T10:35:17;20.70;99.90
49042;DHT22;34859;51.608;11.462;2022-07-05T10:37:44;20.70;99.90
49042;DHT22;34859;51.608;11.462;2022-07-05T10:40:11;20.80;99.90
49042;DHT22;34859;51.608;11.462;2022-07-05T10:42:41;21.00;99.90
49042;DHT22;34859;51.608;11.462;2022-07-05T10:55:48;22.20;99.90
49042;DHT22;34859;51.608;11.462;2022-07-05T10:58:19;22.00;99.90
49042;DHT22;34859;51.608;11.462;2022-07-05T11:09:14;21.40;99.90
49042;DHT22;34859;51.608;11.462;2022-07-05T11:20:15;21.40;99.90
49042;DHT22;34859;51.608;11.462;2022-07-05T11:23:02;21.40;99.90
49042;DHT22;34859;51.608;11.462;2022-07-05T11:25:42;21.60;99.90
49042;DHT22;34859;51.608;11.462;2022-07-05T11:28:16;21.90;99.90
49042;DHT22;34859;51.608;11.462;2022-07-05T11:30:58;22.00;99.90
49042;DHT22;34859;51.608;11.462;2022-07-05T11:33:54;22.20;99.90
49042;DHT22;34859;51.608;11.462;2022-07-05T11:36:25;22.50;99.90
49042;DHT22;34859;51.608;11.462;2022-07-05T11:39:18;22.50;99.90
49042;DHT22;34859;51.608;11.462;2022-07-05T11:41:47;22.70;99.90
49042;DHT22;34859;51.608;11.462;2022-07-05T11:44:13;22.90;99.90
49042;DHT22;34859;51.608;11.462;2022-07-05T11:46:44;23.10;99.90
49042;DHT22;34859;51.608;11.462;2022-07-05T11:49:10;23.20;99.90
49042;DHT22;34859;51.608;11.462;2022-07-05T11:51:37;23.40;99.90
49042;DHT22;34859;51.608;11.462;2022-07-05T11:54:03;23.30;99.90
49042;DHT22;34859;51.608;11.462;2022-07-05T11:56:30;23.00;99.90
49042;DHT22;34859;51.608;11.462;2022-07-05T11:58:56;22.70;99.90
49042;DHT22;34859;51.608;11.462;2022-07-05T12:01:22;22.50;99.90
49042;DHT22;34859;51.608;11.462;2022-07-05T12:03:55;22.50;99.90
49042;DHT22;34859;51.608;11.462;2022-07-05T12:06:22;22.40;99.90
49042;DHT22;34859;51.608;11.462;2022-07-05T12:09:04;22.30;99.90
49042;DHT22;34859;51.608;11.462;2022-07-05T12:11:30;22.30;99.90
49042;DHT22;34859;51.608;11.462;2022-07-05T12:14:24;22.20;99.90
49042;DHT22;34859;51.608;11.462;2022-07-05T12:17:16;22.20;99.90
49042;DHT22;34859;51.608;11.462;2022-07-05T12:19:42;22.20;99.90
49042;DHT22;34859;51.608;11.462;2022-07-05T12:22:10;22.30;99.90
49042;DHT22;34859;51.608;11.462;2022-07-05T12:24:37;22.70;99.90
49042;DHT22;34859;51.608;11.462;2022-07-05T12:27:03;22.90;99.90
49042;DHT22;34859;51.608;11.462;2022-07-05T12:29:49;23.10;99.90
49042;DHT22;34859;51.608;11.462;2022-07-05T12:32:14;23.40;99.90
49042;DHT22;34859;51.608;11.462;2022-07-05T12:34:40;23.50;99.90
49042;DHT22;34859;51.608;11.462;2022-07-05T12:37:07;23.60;99.90
49042;DHT22;34859;51.608;11.462;2022-07-05T12:39:32;23.80;99.90
49042;DHT22;34859;51.608;11.462;2022-07-05T12:41:58;23.90;99.90
49042;DHT22;34859;51.608;11.462;2022-07-05T12:44:24;24.00;99.90
49042;DHT22;34859;51.608;11.462;2022-07-05T12:46:49;24.10;99.90
49042;DHT22;34859;51.608;11.462;2022-07-05T12:49:17;24.20;99.90
49042;DHT22;34859;51.608;11.462;2022-07-05T12:51:44;24.30;99.90
49042;DHT22;34859;51.608;11.462;2022-07-05T12:54:23;24.20;99.90
49042;DHT22;34859;51.608;11.462;2022-07-05T12:57:08;24.00;99.90
49042;DHT22;34859;51.608;11.462;2022-07-05T13:00:00;23.50;99.90
49042;DHT22;34859;51.608;11.462;2022-07-05T13:02:41;23.20;99.90
49042;DHT22;34859;51.608;11.462;2022-07-05T13:05:09;22.90;99.90
49042;DHT22;34859;51.608;11.462;2022-07-05T13:07:42;22.80;99.90
49042;DHT22;34859;51.608;11.462;2022-07-05T13:10:19;22.70;99.90
49042;DHT22;34859;51.608;11.462;2022-07-05T13:12:46;22.70;99.90
49042;DHT22;34859;51.608;11.462;2022-07-05T13:15:12;22.60;99.90
49042;DHT22;34859;51.608;11.462;2022-07-05T13:17:41;22.60;99.90
49042;DHT22;34859;51.608;11.462;2022-07-05T13:20:07;22.60;99.90
49042;DHT22;34859;51.608;11.462;2022-07-05T13:22:33;22.80;99.90
49042;DHT22;34859;51.608;11.462;2022-07-05T13:24:59;23.20;99.90
49042;DHT22;34859;51.608;11.462;2022-07-05T13:27:25;23.40;99.90
49042;DHT22;34859;51.608;11.462;2022-07-05T13:29:51;23.50;99.90
49042;DHT22;34859;51.608;11.462;2022-07-05T13:32:17;23.40;99.90
49042;DHT22;34859;51.608;11.462;2022-07-05T13:34:43;23.30;99.90
49042;DHT22;34859;51.608;11.462;2022-07-05T13:37:10;23.40;99.90
49042;DHT22;34859;51.608;11.462;2022-07-05T13:39:37;23.50;99.90
49042;DHT22;34859;51.608;11.462;2022-07-05T13:42:04;23.70;99.90
49042;DHT22;34859;51.608;11.462;2022-07-05T13:44:31;24.00;99.90
49042;DHT22;34859;51.608;11.462;2022-07-05T13:46:57;24.20;99.90
49042;DHT22;34859;51.608;11.462;2022-07-05T13:49:22;24.00;99.70
49042;DHT22;34859;51.608;11.462;2022-07-05T13:51:48;23.80;99.90
49042;DHT22;34859;51.608;11.462;2022-07-05T13:54:14;23.60;99.90
49042;DHT22;34859;51.608;11.462;2022-07-05T13:56:41;23.60;99.90
49042;DHT22;34859;51.608;11.462;2022-07-05T13:59:06;23.50;99.90
49042;DHT22;34859;51.608;11.462;2022-07-05T14:01:32;23.40;99.90
49042;DHT22;34859;51.608;11.462;2022-07-05T14:04:00;23.20;99.90
49042;DHT22;34859;51.608;11.462;2022-07-05T14:06:31;23.20;99.90
49042;DHT22;34859;51.608;11.462;2022-07-05T14:08:58;23.10;99.90
49042;DHT22;34859;51.608;11.462;2022-07-05T14:11:24;23.10;99.90
49042;DHT22;34859;51.608;11.462;2022-07-05T14:14:11;23.30;99.90
49042;DHT22;34859;51.608;11.462;2022-07-05T14:16:58;23.70;98.70
49042;DHT22;34859;51.608;11.462;2022-07-05T14:19:44;23.60;99.90
49042;DHT22;34859;51.608;11.462;2022-07-05T14:22:29;23.60;99.10
49042;DHT22;34859;51.608;11.462;2022-07-05T14:24:55;23.60;99.90
49042;DHT22;34859;51.608;11.462;2022-07-05T14:27:21;23.60;99.80
49042;DHT22;34859;51.608;11.462;2022-07-05T14:29:48;23.40;98.50
49042;DHT22;34859;51.608;11.462;2022-07-05T14:32:14;23.50;99.50
49042;DHT22;34859;51.608;11.462;2022-07-05T14:34:40;23.70;98.70
49042;DHT22;34859;51.608;11.462;2022-07-05T14:37:09;24.00;97.40
49042;DHT22;34859;51.608;11.462;2022-07-05T14:39:35;23.90;97.30
49042;DHT22;34859;51.608;11.462;2022-07-05T14:42:01;23.60;97.40
49042;DHT22;34859;51.608;11.462;2022-07-05T14:44:31;23.40;98.10
49042;DHT22;34859;51.608;11.462;2022-07-05T14:46:56;23.30;97.80
49042;DHT22;34859;51.608;11.462;2022-07-05T14:49:22;23.40;97.90
49042;DHT22;34859;51.608;11.462;2022-07-05T14:51:48;23.40;97.30
49042;DHT22;34859;51.608;11.462;2022-07-05T14:54:14;23.40;96.90
49042;DHT22;34859;51.608;11.462;2022-07-05T14:56:40;23.30;96.60
49042;DHT22;34859;51.608;11.462;2022-07-05T14:59:07;23.40;98.30
49042;DHT22;34859;51.608;11.462;2022-07-05T15:01:32;23.60;98.10
49042;DHT22;34859;51.608;11.462;2022-07-05T15:03:58;23.70;97.90
49042;DHT22;34859;51.608;11.462;2022-07-05T15:06:24;23.90;96.70
49042;DHT22;34859;51.608;11.462;2022-07-05T15:08:50;24.10;97.10
49042;DHT22;34859;51.608;11.462;2022-07-05T15:11:18;24.10;96.70
49042;DHT22;34859;51.608;11.462;2022-07-05T15:13:43;24.10;97.30
49042;DHT22;34859;51.608;11.462;2022-07-05T15:16:09;24.20;96.00
49042;DHT22;34859;51.608;11.462;2022-07-05T15:18:34;24.40;95.30
49042;DHT22;34859;51.608;11.462;2022-07-05T15:21:00;24.40;94.60
49042;DHT22;34859;51.608;11.462;2022-07-05T15:23:29;24.30;95.10
49042;DHT22;34859;51.608;11.462;2022-07-05T15:25:54;24.10;95.40
49042;DHT22;34859;51.608;11.462;2022-07-05T15:28:20;24.00;93.60
49042;DHT22;34859;51.608;11.462;2022-07-05T15:30:47;24.00;95.40
49042;DHT22;34859;51.608;11.462;2022-07-05T15:33:12;24.10;95.90
49042;DHT22;34859;51.608;11.462;2022-07-05T15:35:38;24.40;93.40
49042;DHT22;34859;51.608;11.462;2022-07-05T15:38:04;24.50;93.40
49042;DHT22;34859;51.608;11.462;2022-07-05T15:40:30;24.60;93.30
49042;DHT22;34859;51.608;11.462;2022-07-05T15:42:57;24.50;92.20
49042;DHT22;34859;51.608;11.462;2022-07-05T15:45:23;24.50;91.60
49042;DHT22;34859;51.608;11.462;2022-07-05T15:47:49;24.30;92.30
49042;DHT22;34859;51.608;11.462;2022-07-05T15:50:14;24.10;92.50
49042;DHT22;34859;51.608;11.462;2022-07-05T15:52:40;23.90;92.90
49042;DHT22;34859;51.608;11.462;2022-07-05T15:55:09;23.90;92.40
49042;DHT22;34859;51.608;11.462;2022-07-05T15:57:35;23.80;91.00